Time;durP1;ratioP1;P1;durP2;ratioP2;P2;SDS_P1;SDS_P2;PMS_P1;PMS_P2;Temp;Humidity;BMP_temperature;BMP_pressure;BME280_temperature;BME280_humidity;BME280_pressure;Samples;Min_cycle;Max_cycle;Signal;HPM_P1;HPM_P2
2021/10/05 00:00:40;;;;;;;22.92;13.55;;;12.00;99.90;;;;;;4988488;28;20042;-76
2021/10/05 00:03:05;;;;;;;22.45;13.52;;;12.00;99.90;;;;;;4990290;28;20081;-76
2021/10/05 00:05:32;;;;;;;21.63;11.63;;;12.00;99.90;;;;;;4991358;28;20030;-77
2021/10/05 00:07:58;;;;;;;20.33;12.93;;;12.00;99.90;;;;;;4987469;28;20478;-74
2021/10/05 00:10:24;;;;;;;20.98;13.35;;;12.00;99.90;;;;;;4987115;28;20026;-77
2021/10/05 00:12:50;;;;;;;25.27;13.27;;;12.00;99.90;;;;;;5005883;28;20038;-74
2021/10/05 00:15:16;;;;;;;22.50;12.95;;;11.90;99.90;;;;;;4989554;28;20065;-76
2021/10/05 00:17:41;;;;;;;25.48;13.95;;;11.90;99.90;;;;;;4991348;28;20528;-74
2021/10/05 00:20:10;;;;;;;22.02;13.02;;;11.90;99.90;;;;;;4990404;28;20019;-76
2021/10/05 00:22:35;;;;;;;21.60;12.82;;;11.90;99.90;;;;;;4984685;28;20033;-74
2021/10/05 00:25:02;;;;;;;25.50;13.50;;;11.90;99.90;;;;;;4989513;28;20074;-76
2021/10/05 00:27:28;;;;;;;23.65;13.50;;;11.90;99.90;;;;;;4987897;28;20038;-74
2021/10/05 00:29:53;;;;;;;27.20;13.30;;;11.90;99.90;;;;;;4988759;28;20035;-75
2021/10/05 00:32:19;;;;;;;19.58;12.73;;;11.80;99.90;;;;;;4989016;28;20054;-76
2021/10/05 00:34:44;;;;;;;20.75;13.10;;;11.80;99.90;;;;;;4986955;28;20484;-75
2021/10/05 00:37:10;;;;;;;25.48;13.25;;;11.80;99.90;;;;;;4986150;28;20148;-75
2021/10/05 00:39:36;;;;;;;18.50;13.18;;;11.80;99.90;;;;;;4985366;28;20041;-76
2021/10/05 00:42:03;;;;;;;20.30;12.68;;;11.80;99.90;;;;;;4988660;28;20081;-76
2021/10/05 00:44:34;;;;;;;21.63;13.30;;;11.70;99.90;;;;;;4992651;28;20030;-74
2021/10/05 00:47:09;;;;;;;22.27;13.13;;;11.70;99.90;;;;;;4989035;28;20046;-76
2021/10/05 00:49:35;;;;;;;20.48;12.55;;;11.70;99.90;;;;;;4985400;28;20407;-75
2021/10/05 00:52:01;;;;;;;22.85;13.40;;;11.60;99.90;;;;;;4984634;28;20503;-76
2021/10/05 00:54:37;;;;;;;25.40;13.93;;;11.60;99.90;;;;;;4989750;28;20169;-76
2021/10/05 00:57:04;;;;;;;19.77;13.13;;;11.60;99.90;;;;;;4989133;28;20031;-76
2021/10/05 00:59:33;;;;;;;23.85;13.52;;;11.60;99.90;;;;;;4992603;28;20035;-74
2021/10/05 01:02:05;;;;;;;26.63;13.47;;;11.60;99.90;;;;;;4987794;28;20026;-75
2021/10/05 01:04:31;;;;;;;19.02;13.52;;;11.50;99.90;;;;;;4988833;28;20325;-76
2021/10/05 01:06:58;;;;;;;23.13;13.52;;;11.60;99.90;;;;;;4988330;28;20569;-76
2021/10/05 01:09:25;;;;;;;20.83;13.30;;;11.50;99.90;;;;;;4988955;28;20074;-76
2021/10/05 01:11:51;;;;;;;18.65;13.05;;;11.40;99.90;;;;;;4991738;28;20230;-76
2021/10/05 01:14:17;;;;;;;24.02;13.55;;;11.40;99.90;;;;;;4990570;28;20026;-75
2021/10/05 01:16:43;;;;;;;19.83;12.88;;;11.40;99.90;;;;;;4987318;28;20117;-75
2021/10/05 01:19:08;;;;;;;25.45;13.32;;;11.40;99.90;;;;;;4989036;28;20046;-75
2021/10/05 01:21:34;;;;;;;21.15;12.48;;;11.30;99.90;;;;;;4992619;28;20088;-76
2021/10/05 01:24:17;;;;;;;20.30;13.48;;;11.30;99.90;;;;;;4993918;28;20089;-75
2021/10/05 01:26:44;;;;;;;21.70;12.35;;;11.30;99.90;;;;;;4982819;28;20022;-77
2021/10/05 01:29:24;;;;;;;22.15;13.73;;;11.30;99.90;;;;;;4993154;28;20495;-75
2021/10/05 01:31:52;;;;;;;24.33;13.35;;;11.30;99.90;;;;;;4988022;28;20027;-76
2021/10/05 01:34:20;;;;;;;22.13;12.63;;;11.30;99.90;;;;;;4992066;28;20388;-74
2021/10/05 01:36:46;;;;;;;21.45;13.13;;;11.20;99.90;;;;;;4991436;28;20019;-75
2021/10/05 01:39:32;;;;;;;20.70;13.98;;;11.20;99.90;;;;;;4992095;28;20050;-76
2021/10/05 01:42:01;;;;;;;21.35;13.43;;;11.20;99.90;;;;;;4990916;28;20043;-77
2021/10/05 01:44:28;;;;;;;22.02;12.32;;;11.20;99.90;;;;;;4985475;28;20495;-76
2021/10/05 01:46:54;;;;;;;20.45;12.95;;;11.20;99.90;;;;;;4990269;28;20042;-74
2021/10/05 01:49:22;;;;;;;24.27;13.93;;;11.10;99.90;;;;;;4988043;28;20041;-74
2021/10/05 01:51:48;;;;;;;30.15;13.98;;;11.10;99.90;;;;;;4979627;28;20023;-76
2021/10/05 01:54:14;;;;;;;22.17;12.63;;;11.10;99.90;;;;;;4989818;28;20023;-74
2021/10/05 01:56:41;;;;;;;27.95;12.80;;;11.10;99.90;;;;;;4993064;28;20033;-74
2021/10/05 01:59:07;;;;;;;26.35;14.10;;;11.10;99.90;;;;;;4993815;28;20079;-74
2021/10/05 02:01:33;;;;;;;18.70;12.45;;;11.10;99.90;;;;;;4989022;28;20026;-74
2021/10/05 02:03:58;;;;;;;23.63;14.10;;;11.00;99.90;;;;;;4990217;28;20026;-77
2021/10/05 02:06:25;;;;;;;20.85;13.40;;;11.00;99.90;;;;;;4989153;28;20772;-76
2021/10/05 02:08:50;;;;;;;23.42;13.45;;;11.00;99.90;;;;;;4975747;28;20058;-75
2021/10/05 02:11:16;;;;;;;18.70;13.07;;;11.00;99.90;;;;;;4992834;28;20138;-74
2021/10/05 02:13:42;;;;;;;21.38;12.82;;;10.90;99.90;;;;;;4992448;28;20038;-76
2021/10/05 02:16:08;;;;;;;27.05;13.27;;;11.00;99.90;;;;;;4992691;28;20033;-76
2021/10/05 02:18:34;;;;;;;23.48;13.38;;;11.00;99.90;;;;;;4993029;28;20031;-77
2021/10/05 02:21:00;;;;;;;22.65;13.77;;;10.90;99.90;;;;;;4992292;28;20026;-74
2021/10/05 02:26:10;;;;;;;21.13;12.63;;;10.90;99.90;;;;;;4990380;28;20169;-74
2021/10/05 02:28:36;;;;;;;23.15;13.85;;;10.90;99.90;;;;;;4989229;28;20026;-75
2021/10/05 02:31:02;;;;;;;18.10;12.43;;;10.90;99.90;;;;;;4990172;28;20069;-76
2021/10/05 02:33:28;;;;;;;18.63;12.43;;;10.90;99.90;;;;;;4992219;28;20030;-76
2021/10/05 02:35:54;;;;;;;23.33;13.32;;;10.90;99.90;;;;;;4990626;28;20026;-77
2021/10/05 02:38:19;;;;;;;23.10;12.63;;;10.90;99.90;;;;;;4983574;28;20516;-75
2021/10/05 02:40:45;;;;;;;22.20;12.18;;;10.80;99.90;;;;;;4990643;28;20026;-76
2021/10/05 02:43:10;;;;;;;17.60;12.38;;;10.80;99.90;;;;;;4990726;28;20026;-75
2021/10/05 02:45:36;;;;;;;23.88;12.95;;;10.80;99.90;;;;;;4990377;28;20041;-76
2021/10/05 02:48:02;;;;;;;26.73;12.98;;;10.80;99.90;;;;;;4991627;28;20038;-75
2021/10/05 02:50:28;;;;;;;24.08;12.00;;;10.80;99.90;;;;;;4993673;28;20376;-77
2021/10/05 02:52:53;;;;;;;15.77;11.82;;;10.80;99.90;;;;;;4992280;28;20081;-77
2021/10/05 02:55:19;;;;;;;22.25;11.27;;;10.80;99.90;;;;;;4990904;28;20373;-77
2021/10/05 02:57:45;;;;;;;23.10;13.15;;;10.80;99.90;;;;;;4990205;28;20393;-76
2021/10/05 03:00:13;;;;;;;23.10;12.35;;;10.80;99.90;;;;;;4991672;28;20065;-77
2021/10/05 03:02:39;;;;;;;19.48;12.23;;;10.80;99.90;;;;;;4993324;28;20023;-74
2021/10/05 03:05:05;;;;;;;21.75;12.80;;;10.80;99.90;;;;;;4990813;28;20529;-76
2021/10/05 03:07:31;;;;;;;18.88;11.80;;;10.80;99.90;;;;;;4990163;28;20030;-76
2021/10/05 03:09:56;;;;;;;23.65;12.13;;;10.80;99.90;;;;;;4988698;28;20053;-74
2021/10/05 03:12:22;;;;;;;17.30;11.77;;;10.80;99.90;;;;;;4988530;28;20077;-74
2021/10/05 03:14:48;;;;;;;19.38;11.88;;;10.70;99.90;;;;;;4992305;28;20031;-75
2021/10/05 03:17:13;;;;;;;21.52;11.82;;;10.70;99.90;;;;;;4989542;28;20030;-74
2021/10/05 03:19:39;;;;;;;19.83;12.38;;;10.70;99.90;;;;;;4987769;28;20145;-76
2021/10/05 03:22:05;;;;;;;23.48;11.98;;;10.70;99.90;;;;;;4989432;28;20080;-77
2021/10/05 03:24:30;;;;;;;18.50;11.13;;;10.70;99.90;;;;;;4988428;28;20072;-74
2021/10/05 03:26:56;;;;;;;20.50;11.32;;;10.70;99.90;;;;;;4988478;28;20034;-76
2021/10/05 03:29:22;;;;;;;19.85;11.27;;;10.70;99.90;;;;;;4991283;28;20038;-74
2021/10/05 03:31:47;;;;;;;19.55;11.55;;;10.70;99.90;;;;;;4987447;28;20396;-76
2021/10/05 03:34:13;;;;;;;19.80;13.13;;;10.60;99.90;;;;;;4988924;28;20387;-74
2021/10/05 03:36:39;;;;;;;21.92;11.75;;;10.70;99.90;;;;;;4985738;28;20041;-74
2021/10/05 03:39:04;;;;;;;19.80;12.98;;;10.70;99.90;;;;;;4988547;28;20035;-76
2021/10/05 03:41:30;;;;;;;17.25;13.15;;;10.70;99.90;;;;;;4991675;28;20488;-74
2021/10/05 03:43:57;;;;;;;20.08;11.27;;;10.70;99.90;;;;;;4988509;28;20027;-74
2021/10/05 03:46:23;;;;;;;20.02;11.20;;;10.70;99.90;;;;;;4986161;28;20025;-76
2021/10/05 03:48:48;;;;;;;24.27;12.27;;;10.80;99.90;;;;;;4985749;28;20030;-76
2021/10/05 03:51:14;;;;;;;22.50;11.35;;;10.80;99.90;;;;;;4984770;28;20035;-74
2021/10/05 03:53:40;;;;;;;19.52;10.18;;;10.80;99.90;;;;;;4990352;28;20037;-74
2021/10/05 03:56:05;;;;;;;22.88;11.82;;;10.90;99.90;;;;;;4987694;28;20026;-76
2021/10/05 03:58:31;;;;;;;17.80;10.75;;;10.80;99.90;;;;;;4987204;28;20042;-77
2021/10/05 04:00:57;;;;;;;21.48;11.30;;;10.90;99.90;;;;;;4987235;28;20034;-77
2021/10/05 04:03:24;;;;;;;24.23;11.38;;;10.90;99.90;;;;;;4985168;28;20033;-77
2021/10/05 04:05:53;;;;;;;20.98;10.75;;;10.90;99.90;;;;;;4989386;28;20037;-76
2021/10/05 04:08:19;;;;;;;15.85;10.73;;;10.90;99.90;;;;;;4990621;28;20057;-76
2021/10/05 04:10:44;;;;;;;14.30;10.52;;;10.90;99.90;;;;;;4988693;28;20061;-76
2021/10/05 04:13:10;;;;;;;20.75;10.98;;;11.00;99.90;;;;;;4981344;28;20034;-76
2021/10/05 04:15:36;;;;;;;16.33;11.10;;;11.00;99.90;;;;;;4986913;28;20030;-76
2021/10/05 04:18:02;;;;;;;14.20;9.63;;;11.00;99.90;;;;;;4988572;28;20097;-77
2021/10/05 04:20:28;;;;;;;22.77;10.10;;;10.90;99.90;;;;;;4990678;28;20066;-77
2021/10/05 04:22:54;;;;;;;19.30;10.15;;;11.00;99.90;;;;;;4988936;28;20052;-76
2021/10/05 04:25:19;;;;;;;15.05;10.10;;;10.90;99.90;;;;;;4989126;28;20033;-77
2021/10/05 04:27:45;;;;;;;22.23;10.57;;;10.90;99.90;;;;;;4988690;28;20411;-77
2021/10/05 04:30:12;;;;;;;16.17;10.00;;;10.90;99.90;;;;;;4986650;28;20160;-77
2021/10/05 04:32:38;;;;;;;21.05;9.32;;;10.90;99.90;;;;;;4992547;28;20037;-76
2021/10/05 04:35:05;;;;;;;19.00;9.90;;;10.90;99.90;;;;;;4987986;28;20022;-77
2021/10/05 04:37:31;;;;;;;15.35;10.60;;;10.80;99.90;;;;;;4981644;28;20046;-76
2021/10/05 04:39:56;;;;;;;16.88;9.63;;;10.80;99.90;;;;;;4986208;28;20045;-77
2021/10/05 04:42:24;;;;;;;19.85;10.45;;;10.80;99.90;;;;;;4986867;28;20042;-77
2021/10/05 04:44:50;;;;;;;20.45;10.60;;;10.80;99.90;;;;;;4989367;28;20030;-77
2021/10/05 04:47:15;;;;;;;15.75;9.63;;;10.80;99.90;;;;;;4989239;28;20509;-76
2021/10/05 04:49:41;;;;;;;14.95;10.25;;;10.80;99.90;;;;;;4988305;28;20132;-76
2021/10/05 04:52:07;;;;;;;19.27;11.05;;;10.80;99.90;;;;;;4988625;28;20034;-76
2021/10/05 04:54:33;;;;;;;18.60;10.63;;;10.70;99.90;;;;;;4991783;28;20031;-77
2021/10/05 04:56:59;;;;;;;16.45;9.50;;;10.70;99.90;;;;;;4991943;28;20066;-77
2021/10/05 04:59:25;;;;;;;19.35;10.60;;;10.70;99.90;;;;;;4996456;28;20034;-76
2021/10/05 05:01:50;;;;;;;20.05;10.35;;;10.70;99.90;;;;;;4992418;28;20069;-76
2021/10/05 05:04:16;;;;;;;19.58;9.68;;;10.70;99.90;;;;;;4992348;28;20022;-76
2021/10/05 05:06:43;;;;;;;18.45;9.73;;;10.70;99.90;;;;;;4992425;28;20109;-77
2021/10/05 05:09:09;;;;;;;20.52;10.65;;;10.70;99.90;;;;;;4992516;28;20080;-76
2021/10/05 05:11:34;;;;;;;15.63;9.35;;;10.80;99.90;;;;;;4995448;28;20030;-76
2021/10/05 05:14:05;;;;;;;18.08;10.00;;;10.70;99.90;;;;;;4990906;28;20063;-77
2021/10/05 05:16:31;;;;;;;17.77;9.50;;;10.80;99.90;;;;;;4992458;28;20034;-76
2021/10/05 05:18:57;;;;;;;15.88;9.27;;;10.80;99.90;;;;;;4991679;28;20112;-77
2021/10/05 05:21:23;;;;;;;18.77;9.52;;;10.90;99.90;;;;;;4989631;28;20030;-77
2021/10/05 05:23:49;;;;;;;17.88;10.10;;;10.90;99.90;;;;;;4993457;28;20029;-74
2021/10/05 05:26:15;;;;;;;18.95;9.27;;;11.00;99.90;;;;;;4989277;28;20746;-76
2021/10/05 05:28:41;;;;;;;17.70;9.30;;;11.00;99.90;;;;;;4989868;28;20121;-74
2021/10/05 05:31:07;;;;;;;17.75;9.88;;;11.10;99.90;;;;;;4989287;28;20030;-74
2021/10/05 05:33:33;;;;;;;15.38;8.77;;;11.10;99.90;;;;;;4988605;28;20026;-74
2021/10/05 05:35:58;;;;;;;16.98;10.18;;;11.10;99.90;;;;;;4993271;28;20035;-74
2021/10/05 05:38:26;;;;;;;18.38;9.35;;;11.20;99.90;;;;;;4994893;28;20046;-74
2021/10/05 05:40:52;;;;;;;18.35;9.63;;;11.20;99.90;;;;;;4989247;28;20026;-75
2021/10/05 05:43:18;;;;;;;17.52;9.15;;;11.20;99.90;;;;;;4988169;28;20023;-75
2021/10/05 05:45:43;;;;;;;14.38;8.40;;;11.30;99.90;;;;;;4989106;28;20026;-74
2021/10/05 05:48:09;;;;;;;16.60;10.23;;;11.40;99.90;;;;;;4989539;28;20023;-74
2021/10/05 05:50:35;;;;;;;16.98;8.80;;;11.40;99.90;;;;;;4995008;28;20034;-74
2021/10/05 05:53:00;;;;;;;15.27;9.30;;;11.50;99.90;;;;;;4989459;28;20062;-74
2021/10/05 05:55:26;;;;;;;15.10;8.85;;;11.60;99.90;;;;;;4988805;28;20030;-74
2021/10/05 05:57:52;;;;;;;18.23;9.50;;;11.60;99.90;;;;;;4987936;28;20031;-74
2021/10/05 06:00:19;;;;;;;15.57;9.77;;;11.60;99.90;;;;;;4991328;28;20034;-74
2021/10/05 06:02:45;;;;;;;17.35;9.27;;;11.70;99.90;;;;;;4992794;28;20392;-75
2021/10/05 06:05:11;;;;;;;19.08;8.25;;;11.70;99.90;;;;;;4982325;28;20033;-75
2021/10/05 06:07:37;;;;;;;16.77;10.35;;;11.80;99.90;;;;;;4989662;28;20157;-75
2021/10/05 06:10:05;;;;;;;15.68;8.63;;;11.80;99.90;;;;;;4989165;28;20431;-75
2021/10/05 06:12:40;;;;;;;20.58;9.10;;;11.90;99.90;;;;;;4990864;28;20038;-75
2021/10/05 06:15:12;;;;;;;18.83;9.57;;;12.00;99.90;;;;;;4987388;28;20050;-77
2021/10/05 06:17:39;;;;;;;14.18;9.00;;;12.10;99.90;;;;;;4989027;28;20484;-76
2021/10/05 06:20:17;;;;;;;16.15;9.25;;;12.10;99.90;;;;;;4989007;28;20073;-77
2021/10/05 06:22:43;;;;;;;16.63;8.70;;;12.10;99.90;;;;;;4986417;28;20038;-77
2021/10/05 06:25:11;;;;;;;15.93;8.65;;;12.10;99.90;;;;;;4989386;28;20464;-77
2021/10/05 06:27:37;;;;;;;14.93;7.93;;;12.20;99.90;;;;;;4990797;28;20030;-77
2021/10/05 06:30:04;;;;;;;18.70;9.18;;;12.20;99.90;;;;;;4989644;28;20101;-77
2021/10/05 06:32:30;;;;;;;17.00;9.00;;;12.20;99.90;;;;;;4986203;28;20116;-77
2021/10/05 06:34:56;;;;;;;19.60;8.88;;;12.30;99.90;;;;;;4988374;28;20456;-76
2021/10/05 06:37:21;;;;;;;16.98;9.23;;;12.30;99.90;;;;;;4988028;28;20062;-76
2021/10/05 06:39:47;;;;;;;17.35;8.70;;;12.40;99.90;;;;;;5004198;28;20133;-77
2021/10/05 06:42:13;;;;;;;15.77;9.07;;;12.40;99.90;;;;;;4991152;28;20034;-76
2021/10/05 06:44:39;;;;;;;15.02;9.27;;;12.40;99.90;;;;;;4987365;28;20030;-76
2021/10/05 06:47:05;;;;;;;19.15;9.27;;;12.40;99.90;;;;;;4991236;28;20027;-77
2021/10/05 06:49:31;;;;;;;14.55;8.93;;;12.60;99.90;;;;;;4989968;28;20038;-77
2021/10/05 06:51:57;;;;;;;16.15;8.88;;;12.60;99.90;;;;;;4989022;28;20105;-76
2021/10/05 06:54:22;;;;;;;17.75;8.18;;;12.70;99.90;;;;;;4989270;28;20034;-77
2021/10/05 06:56:48;;;;;;;16.10;8.68;;;12.80;99.90;;;;;;4990504;28;20042;-76
2021/10/05 06:59:14;;;;;;;15.18;9.02;;;12.90;99.90;;;;;;4988762;28;20049;-76
2021/10/05 07:01:40;;;;;;;17.13;8.63;;;13.00;99.90;;;;;;4980955;28;20081;-76
2021/10/05 07:04:05;;;;;;;17.08;9.45;;;13.10;99.90;;;;;;4986407;28;20021;-77
2021/10/05 07:06:31;;;;;;;16.25;9.25;;;13.10;99.90;;;;;;4987997;28;20636;-77
2021/10/05 07:08:57;;;;;;;16.25;8.98;;;13.20;99.90;;;;;;4989613;28;20054;-76
2021/10/05 07:11:23;;;;;;;17.98;7.93;;;13.30;99.90;;;;;;4988302;28;20041;-76
2021/10/05 07:13:49;;;;;;;13.80;8.07;;;13.40;99.90;;;;;;4988080;28;20030;-77
2021/10/05 07:16:15;;;;;;;16.15;8.60;;;13.40;99.90;;;;;;4983120;28;20574;-76
2021/10/05 07:18:40;;;;;;;20.00;8.80;;;13.50;99.90;;;;;;4981658;28;20130;-80
2021/10/05 07:21:06;;;;;;;17.10;8.25;;;13.60;99.90;;;;;;4984214;28;20022;-76
2021/10/05 07:23:32;;;;;;;16.17;8.20;;;13.70;99.90;;;;;;4980768;28;20121;-73
2021/10/05 07:25:58;;;;;;;13.50;7.82;;;13.70;99.90;;;;;;4984577;28;20145;-74
2021/10/05 07:28:23;;;;;;;17.17;7.75;;;13.70;99.90;;;;;;4984949;28;20084;-74
2021/10/05 07:30:49;;;;;;;17.13;7.95;;;13.80;99.90;;;;;;4984568;28;20488;-73
2021/10/05 07:33:15;;;;;;;14.13;8.43;;;13.90;99.90;;;;;;4981644;28;20038;-75
2021/10/05 07:35:41;;;;;;;14.60;8.57;;;14.00;99.90;;;;;;4986459;28;20034;-75
2021/10/05 07:38:07;;;;;;;12.57;7.95;;;14.10;99.90;;;;;;4983763;28;20467;-74
2021/10/05 07:40:33;;;;;;;16.02;8.65;;;14.20;99.90;;;;;;4979691;28;20031;-74
2021/10/05 07:43:01;;;;;;;14.43;8.25;;;14.20;99.90;;;;;;4982363;28;20383;-76
2021/10/05 07:45:29;;;;;;;13.10;8.43;;;14.30;99.90;;;;;;4980037;28;20031;-74
2021/10/05 07:47:55;;;;;;;15.73;8.70;;;14.40;99.90;;;;;;4981867;28;20026;-75
2021/10/05 07:50:22;;;;;;;13.40;7.80;;;14.50;99.90;;;;;;4982338;28;20033;-75
2021/10/05 07:52:48;;;;;;;15.60;8.25;;;14.70;99.90;;;;;;4984178;28;20383;-74
2021/10/05 07:55:15;;;;;;;13.57;7.85;;;14.80;99.90;;;;;;4988595;28;20019;-74
2021/10/05 07:57:41;;;;;;;11.93;8.15;;;14.80;99.90;;;;;;4988035;28;20395;-74
2021/10/05 08:00:08;;;;;;;13.93;7.55;;;14.90;99.90;;;;;;4982956;28;21255;-75
2021/10/05 08:02:34;;;;;;;14.27;8.68;;;15.00;99.90;;;;;;4990890;28;20542;-74
2021/10/05 08:04:59;;;;;;;13.40;7.38;;;15.00;99.90;;;;;;4986832;28;20022;-75
2021/10/05 08:07:28;;;;;;;18.05;7.65;;;15.10;99.90;;;;;;4987087;28;20037;-74
2021/10/05 08:09:55;;;;;;;9.00;6.55;;;15.20;99.90;;;;;;4988357;28;20630;-74
2021/10/05 08:12:22;;;;;;;13.48;7.55;;;15.30;99.90;;;;;;4986882;28;20027;-74
2021/10/05 08:14:48;;;;;;;13.68;8.15;;;15.40;99.90;;;;;;4990236;28;20033;-74
2021/10/05 08:17:14;;;;;;;13.23;7.75;;;15.50;99.90;;;;;;4986896;28;20184;-75
2021/10/05 08:19:40;;;;;;;11.38;7.00;;;15.60;99.90;;;;;;4984407;28;20077;-74
2021/10/05 08:22:06;;;;;;;11.18;7.35;;;15.60;99.90;;;;;;4987715;28;20108;-74
2021/10/05 08:24:32;;;;;;;11.23;6.53;;;15.60;99.90;;;;;;4985289;28;20049;-74
2021/10/05 08:26:58;;;;;;;11.80;6.97;;;15.70;99.90;;;;;;4989290;28;20028;-75
2021/10/05 08:29:24;;;;;;;13.27;7.60;;;15.70;99.90;;;;;;4990245;28;20134;-74
2021/10/05 08:31:50;;;;;;;13.48;7.43;;;15.80;99.90;;;;;;4988679;28;20109;-74
2021/10/05 08:34:17;;;;;;;13.68;6.82;;;15.80;99.90;;;;;;4979727;28;20042;-76
2021/10/05 08:36:43;;;;;;;11.35;7.25;;;15.80;99.90;;;;;;4951937;28;20018;-75
2021/10/05 08:39:10;;;;;;;12.77;6.82;;;15.90;99.90;;;;;;4974640;28;20048;-76
2021/10/05 08:41:38;;;;;;;12.88;7.43;;;15.90;99.90;;;;;;4987368;28;20019;-75
2021/10/05 08:44:04;;;;;;;13.85;7.38;;;16.00;99.90;;;;;;4976927;28;20038;-74
2021/10/05 08:46:34;;;;;;;16.23;7.53;;;16.10;99.90;;;;;;4985902;28;20037;-75
2021/10/05 08:49:01;;;;;;;16.33;7.85;;;16.20;99.90;;;;;;4977221;28;20489;-74
2021/10/05 08:51:26;;;;;;;14.10;7.22;;;16.20;99.90;;;;;;4984002;28;20030;-75
2021/10/05 08:53:52;;;;;;;13.82;6.63;;;16.30;99.90;;;;;;4980764;28;20093;-75
2021/10/05 08:56:18;;;;;;;12.85;7.25;;;16.30;99.90;;;;;;4980633;28;20032;-75
2021/10/05 08:58:44;;;;;;;9.45;6.15;;;16.40;99.90;;;;;;4988441;28;20042;-75
2021/10/05 09:01:16;;;;;;;11.15;6.55;;;16.40;99.90;;;;;;4968657;28;20034;-75
2021/10/05 09:03:55;;;;;;;17.58;7.40;;;16.50;99.90;;;;;;4981654;28;20161;-74
2021/10/05 09:06:22;;;;;;;9.48;6.90;;;16.50;99.90;;;;;;4972862;28;20492;-75
2021/10/05 09:08:49;;;;;;;12.55;7.30;;;16.60;99.90;;;;;;4981303;28;20027;-75
2021/10/05 09:11:17;;;;;;;9.88;6.63;;;16.70;99.90;;;;;;4986526;28;20089;-75
2021/10/05 09:13:51;;;;;;;11.18;6.93;;;16.80;99.90;;;;;;4975118;28;20383;-75
2021/10/05 09:16:31;;;;;;;10.70;7.60;;;16.80;99.90;;;;;;4981511;28;20045;-75
2021/10/05 09:18:57;;;;;;;15.40;6.85;;;16.80;99.90;;;;;;4982063;28;20038;-75
2021/10/05 09:21:29;;;;;;;13.15;6.93;;;16.90;99.90;;;;;;4975388;28;20034;-75
2021/10/05 09:24:06;;;;;;;13.57;7.20;;;16.90;99.90;;;;;;4987259;28;20023;-77
2021/10/05 09:26:57;;;;;;;14.68;6.68;;;16.90;99.90;;;;;;4977870;28;20572;-77
2021/10/05 09:29:26;;;;;;;9.60;5.95;;;17.00;99.90;;;;;;4976297;28;20050;-76
2021/10/05 09:31:59;;;;;;;11.90;6.93;;;17.00;99.90;;;;;;4979462;28;20484;-76
2021/10/05 09:34:51;;;;;;;8.95;6.80;;;17.10;99.90;;;;;;4982129;28;20052;-77
2021/10/05 09:37:23;;;;;;;10.75;6.35;;;17.10;99.90;;;;;;4985332;28;20145;-77
2021/10/05 09:40:00;;;;;;;11.05;6.35;;;17.10;99.90;;;;;;4982338;28;20096;-77
2021/10/05 09:42:28;;;;;;;13.35;6.30;;;17.40;99.90;;;;;;4980093;28;20046;-75
2021/10/05 09:44:57;;;;;;;12.18;6.47;;;17.60;99.90;;;;;;4989032;28;20075;-76
2021/10/05 09:47:31;;;;;;;9.13;6.35;;;17.70;99.90;;;;;;4993151;28;20081;-76
2021/10/05 09:49:57;;;;;;;13.32;6.93;;;17.60;99.90;;;;;;4989426;28;20399;-76
2021/10/05 09:52:22;;;;;;;17.55;7.95;;;17.70;99.90;;;;;;4990825;28;20022;-76
2021/10/05 09:54:49;;;;;;;10.95;6.30;;;17.70;99.90;;;;;;4990411;28;20154;-76
2021/10/05 09:57:14;;;;;;;15.20;6.82;;;17.90;99.90;;;;;;4991843;28;20046;-76
2021/10/05 09:59:40;;;;;;;15.15;6.57;;;18.00;99.90;;;;;;4994478;28;20396;-77
2021/10/05 10:02:11;;;;;;;9.80;6.22;;;18.10;99.90;;;;;;4991150;28;20034;-77
2021/10/05 10:04:36;;;;;;;12.25;6.65;;;18.20;99.90;;;;;;4987758;28;20038;-76
2021/10/05 10:07:02;;;;;;;10.55;6.40;;;18.30;99.90;;;;;;4984342;28;20396;-76
2021/10/05 10:09:31;;;;;;;13.20;6.70;;;18.40;99.90;;;;;;4991210;28;20069;-76
2021/10/05 10:11:59;;;;;;;11.40;5.90;;;18.40;99.90;;;;;;4990720;28;20031;-76
2021/10/05 10:14:25;;;;;;;10.18;5.60;;;18.40;99.90;;;;;;4991362;28;20371;-76
2021/10/05 10:16:51;;;;;;;9.88;6.10;;;18.30;99.90;;;;;;4991455;28;20023;-76
2021/10/05 10:19:29;;;;;;;14.85;7.07;;;18.30;99.90;;;;;;4988552;28;20030;-75
2021/10/05 10:22:09;;;;;;;12.38;6.15;;;18.30;99.90;;;;;;4993110;28;20029;-76
2021/10/05 10:24:52;;;;;;;12.38;6.47;;;18.30;99.90;;;;;;4989582;28;20033;-76
2021/10/05 10:27:20;;;;;;;14.85;6.25;;;18.30;99.90;;;;;;4991691;28;20076;-76
2021/10/05 10:29:47;;;;;;;7.60;5.95;;;18.50;99.90;;;;;;4992559;28;20021;-76
2021/10/05 10:32:24;;;;;;;12.65;6.35;;;18.70;99.90;;;;;;4987645;28;20496;-76
2021/10/05 10:35:06;;;;;;;10.55;6.30;;;18.70;99.90;;;;;;4984380;28;20027;-76
2021/10/05 10:37:51;;;;;;;10.07;5.93;;;18.80;99.90;;;;;;4987837;28;20209;-76
2021/10/05 10:40:19;;;;;;;8.70;6.32;;;18.80;99.90;;;;;;4981617;28;20038;-76
2021/10/05 10:42:45;;;;;;;11.18;5.72;;;19.00;99.90;;;;;;4987005;28;20089;-75
2021/10/05 10:45:16;;;;;;;15.02;6.53;;;19.00;99.90;;;;;;4976414;28;20420;-76
2021/10/05 10:47:43;;;;;;;9.60;5.70;;;19.00;99.90;;;;;;4988759;28;20038;-76
2021/10/05 10:50:12;;;;;;;9.27;5.88;;;19.10;99.90;;;;;;4987372;28;20034;-76
2021/10/05 10:52:43;;;;;;;11.80;5.78;;;19.20;99.90;;;;;;4979585;28;20066;-76
2021/10/05 10:55:11;;;;;;;12.73;6.57;;;19.20;99.90;;;;;;4984914;28;20091;-76
2021/10/05 10:57:40;;;;;;;10.13;5.72;;;19.30;99.90;;;;;;4983801;28;20058;-76
2021/10/05 11:00:23;;;;;;;13.13;6.32;;;19.40;99.90;;;;;;4988170;28;20039;-76
2021/10/05 11:02:57;;;;;;;15.00;5.95;;;19.50;99.90;;;;;;4992046;28;20039;-76
2021/10/05 11:05:24;;;;;;;9.75;5.45;;;19.40;99.90;;;;;;4991579;28;20026;-76
2021/10/05 11:07:55;;;;;;;8.63;5.97;;;19.30;99.90;;;;;;4990767;28;20120;-76
2021/10/05 11:10:32;;;;;;;11.77;5.93;;;19.20;99.90;;;;;;4985273;28;20483;-74
2021/10/05 11:13:01;;;;;;;11.82;5.47;;;19.20;99.90;;;;;;4979380;28;20077;-76
2021/10/05 11:15:35;;;;;;;12.65;5.85;;;19.20;99.90;;;;;;4987185;28;20030;-74
2021/10/05 11:18:08;;;;;;;9.50;6.13;;;19.30;99.90;;;;;;5000978;28;20059;-75
2021/10/05 11:20:42;;;;;;;11.60;6.22;;;19.30;99.90;;;;;;4989607;28;20076;-75
2021/10/05 11:23:08;;;;;;;10.63;5.80;;;19.30;99.90;;;;;;4987934;28;20034;-74
2021/10/05 11:25:34;;;;;;;10.70;6.03;;;19.30;99.90;;;;;;4982939;28;20033;-74
2021/10/05 11:28:11;;;;;;;11.07;6.10;;;19.30;99.90;;;;;;4986741;28;20519;-71
2021/10/05 11:31:04;;;;;;;14.23;5.82;;;19.40;99.90;;;;;;4986484;28;20126;-75
2021/10/05 11:33:34;;;;;;;14.20;5.22;;;19.40;99.90;;;;;;4984683;28;20392;-73
2021/10/05 11:36:01;;;;;;;;;;;19.50;99.90;;;;;;4977231;28;20041;-74
2021/10/05 11:38:59;;;;;;;11.35;5.53;;;19.50;99.90;;;;;;4989304;28;19928;-75
2021/10/05 11:41:41;;;;;;;11.98;6.65;;;19.50;99.90;;;;;;4984870;28;20049;-74
2021/10/05 11:44:21;;;;;;;10.25;5.82;;;19.50;99.90;;;;;;4980771;28;20055;-74
2021/10/05 11:47:03;;;;;;;;;;;19.50;99.90;;;;;;4983116;28;20030;-75
2021/10/05 11:49:32;;;;;;;8.23;5.18;;;19.60;99.90;;;;;;4982815;28;20342;-73
2021/10/05 11:51:59;;;;;;;15.17;6.00;;;19.60;99.90;;;;;;4981071;28;20043;-74
2021/10/05 11:54:31;;;;;;;14.93;6.93;;;19.60;99.90;;;;;;4982833;28;20038;-74
2021/10/05 11:57:00;;;;;;;10.82;5.82;;;19.60;99.90;;;;;;4984131;28;20026;-76
2021/10/05 11:59:33;;;;;;;10.00;5.43;;;19.60;99.90;;;;;;4982322;28;20042;-75
2021/10/05 12:02:03;;;;;;;11.65;6.30;;;19.60;99.90;;;;;;4980353;28;20824;-74
2021/10/05 12:04:29;;;;;;;11.43;6.20;;;19.60;99.90;;;;;;4982800;28;20042;-78
2021/10/05 12:07:00;;;;;;;10.38;6.03;;;19.60;99.90;;;;;;4982499;28;20046;-74
2021/10/05 12:09:28;;;;;;;15.57;6.85;;;19.70;99.90;;;;;;4978315;28;20193;-74
2021/10/05 12:12:07;;;;;;;15.65;6.20;;;19.60;99.90;;;;;;4980647;28;20022;-73
2021/10/05 12:14:38;;;;;;;11.48;5.47;;;19.70;99.90;;;;;;4985872;28;20066;-73
2021/10/05 12:17:04;;;;;;;10.40;5.63;;;19.60;99.90;;;;;;4975805;28;20058;-74
2021/10/05 12:19:37;;;;;;;12.98;6.30;;;19.60;99.90;;;;;;4987023;28;20030;-73
2021/10/05 12:22:05;;;;;;;13.40;6.20;;;19.60;99.90;;;;;;4984374;28;20038;-71
2021/10/05 12:24:45;;;;;;;13.15;5.82;;;19.70;99.90;;;;;;4978919;28;20125;-73
2021/10/05 12:27:18;;;;;;;9.15;5.75;;;19.60;99.90;;;;;;4985384;28;20078;-71
2021/10/05 12:30:14;;;;;;;11.20;5.65;;;19.60;99.90;;;;;;4986038;28;20586;-72
2021/10/05 12:32:42;;;;;;;8.15;5.68;;;19.60;99.90;;;;;;4985296;28;20037;-71
2021/10/05 12:35:31;;;;;;;12.93;6.60;;;19.60;99.90;;;;;;4985726;28;20084;-72
2021/10/05 12:38:17;;;;;;;11.15;7.03;;;19.50;99.90;;;;;;4985928;28;20136;-75
2021/10/05 12:40:43;;;;;;;11.73;6.82;;;19.50;99.90;;;;;;4969500;28;20070;-72